Station info - map view · info · telemetry · weather · raw · status · beacons · messages · bulletins · browse · moving · my account
Callsign, ship name or locator: Clear       
It is possible to search using wildcards (*?) after a prefix. Example: OH*
APRS station EA5AER-9 - show graphs
Map loading...
Last status: 145.425MHz Javier 5w TinyTrack3
Location: 38°50.06' N 0°06.20' E - locator JM08BU20JF - show map - static map
0.5 miles South bearing 196° from Denia, Provincia de Alicante, Valencia, Spain [?]
4.2 miles North bearing 13° from Gata de Gorgos, Provincia de Alicante, Valencia, Spain
50.9 miles Southeast bearing 149° from Valencia, Província de València, Valencia, Spain
88.7 miles Northeast bearing 48° from Murcia, Murcia, Murcia, Spain
Last position: 2017-09-24 10:09:17 EDT (1m40s ago)
2017-09-24 16:09:17 CEST local time at Denia, Spain [?]
Altitude: 26 ft
Course: 113°
Device: Byonics: TinyTrak3 (tracker)
Last path: EA5AER-9>APT311 via WIDE1-1,qAR,EA5AER-2 (good)
Positions stored: 138335
Packet rate: 133 seconds between packets on average during 2390 seconds.
Other SSIDs: EA5AER EA5AER-1 EA5AER-12 EA5AER-15 EA5AER-2 EA5AER-3 EA5AER-4 EA5AER-5 EA5AER-7
Stations near current position of EA5AER-9 - show more
callsign distance last heard - EDT      callsign distance last heard - EDT
FW0879193.8 yards 78°2017-09-24 10:09:04 EB5HDK-9393.2 yards 348°2017-09-24 10:04:13
EA5SB-90.3 miles 8°2017-09-22 10:46:10 EA5AER-40.6 miles 210°2017-08-26 16:25:52
EA5RCD-150.6 miles 20°2017-09-24 10:09:02 ED5ZAC A0.6 miles 20°2017-09-24 10:06:32
ED5ZAC B0.6 miles 20°2017-09-24 10:06:32 ED5ZAC C0.6 miles 20°2017-09-24 10:06:32
ED5ZAC-B0.6 miles 20°2017-09-24 10:06:32 ED5ZAC-C0.6 miles 20°2017-09-24 10:06:32
ED5ZAC-A0.6 miles 20°2017-09-24 10:06:32 EA5AER-50.7 miles 236°2017-09-24 10:01:22
EA5AER-20.7 miles 236°2017-09-24 10:05:00 EA5AER-30.7 miles 238°2017-09-03 07:26:24
DH9SD-90.7 miles 50°2017-09-24 07:32:07 TROIA0.8 miles 39°2017-09-05 19:21:33
S Y BLACK MOLLY0.8 miles 44°2017-09-09 03:04:49 PAZ0.8 miles 42°2017-09-24 10:05:58
256493000 MT0.8 miles 43°2017-09-14 04:03:05 ESTRELLA FUGAZ0.8 miles 46°2017-09-14 14:11:00
Stations which heard EA5AER-9 directly on radio –
callsign pkts first heard - EDT last heard longest (tx => rx) longest at - EDT
ED4ZAA-3 4 2017-09-02 07:47:21 2017-09-03 03:10:03 IN70XP > IN80JI 46.2 miles 114° 2017-09-02 07:47:21
EA4OF 19 2017-09-02 06:47:36 2017-09-02 08:05:20 IN70TS > IN80EI 45.6 miles 125° 2017-09-02 08:05:20
EA5RCD-15 245 2017-09-02 03:39:31 2017-09-24 10:05:24 IM99LL > JM08BU 73.5 miles 126° 2017-09-02 04:02:25
EB1HRW 6 2017-09-02 08:03:21 2017-09-03 02:04:22 IN70UR > IN71PQ 68.5 miles 344° 2017-09-03 02:04:22
ED1ZAB-3 112 2017-09-02 09:26:59 2017-09-03 01:20:34 IN70LV > IN60VM 63.8 miles 247° 2017-09-02 09:26:59
ED2YAL-15 46 2017-09-02 04:12:23 2017-09-23 16:41:43 JM08BU > IN90LC 106.2 miles 326° 2017-09-04 11:39:45
ED4ZAF-3 6 2017-09-02 06:49:35 2017-09-03 03:08:03 IN70WQ > IN80FK 35.0 miles 122° 2017-09-03 02:16:18
EA5AER-2 4357 2017-08-31 22:06:03 2017-09-24 10:09:17 IM99VA > JM08BT 21.8 miles 129° 2017-09-02 03:04:34
ED4YAB-3 6 2017-09-02 06:45:37 2017-09-03 03:16:01 IN80ID > IN80CH 29.4 miles 293° 2017-09-02 06:45:37
EA5AHQ-12 7 2017-09-03 06:09:23 2017-09-23 11:52:22 IM99UD > IM99QK 25.2 miles 322° 2017-09-23 11:48:23
EA1FAQ-3 6 2017-09-03 01:00:36 2017-09-03 02:10:20 IN70VR > IN71PN 62.5 miles 335° 2017-09-03 02:10:20
EA5NY-10 13 2017-09-03 06:21:26 2017-09-23 15:37:56 IM98WW > IM99TL 39.6 miles 341° 2017-09-03 07:01:25
EA5URJ-10 10 2017-09-02 02:48:24 2017-09-22 06:44:03 IM98XU > JM08BS 10.0 miles 116° 2017-09-02 02:48:24
ED1ZAW-3 1 2017-09-03 01:54:30 2017-09-03 01:54:30 IN70SR > IN72JU 150.4 miles 346° 2017-09-03 01:54:30
EA5URV-10 9 2017-09-02 03:02:35 2017-09-23 15:49:52 JM08AT > IM99TQ 64.5 miles 339° 2017-09-04 11:22:31
EA5EBD-10 3 2017-09-02 03:10:32 2017-09-23 16:01:48 IM99VA > IM99UD 10.5 miles 346° 2017-09-23 11:38:24
EA5AHQ-15 16 2017-09-02 03:12:32 2017-09-23 16:07:47 IM99LL > IM99TF 40.8 miles 116° 2017-09-03 05:53:25
EA5IIE-11 9 2017-09-02 03:22:28 2017-09-03 06:37:21 IM99TF > IM99TL 16.9 miles 12° 2017-09-03 06:37:21
EA5HFG-11 46 2017-09-02 02:26:32 2017-09-23 15:47:53 JM08BU > IM99RK 54.6 miles 319° 2017-09-23 08:08:15
EA5RCD-10 1 2017-09-23 11:58:20 2017-09-23 11:58:20 IM99TG > JM08BT 43.1 miles 135° 2017-09-23 11:58:20

Only position packets which were originated by the station are shown here. The range statistics show some extra long hops, because some digipeaters do not correctly add themselves to the digipeater path. Please check the raw packets.
About this site
This page shows real-time information collected from the Automatic Position Reporting System Internet network (APRS-IS). APRS is used by amateur (ham) radio operators to transmit real-time position information, weather data, telemetry and messages over the radio. A vehicle equipped with a GPS receiver, a VHF transmitter or HF transceiver and a small computer device called a tracker transmits it's location, speed and course in a small data packet, which is then received by a nearby iGate receiving site which forwards the packet on the Internet. Systems connected to the Internet can send information on the APRS-IS without a radio transmitter, or collect and display information transmitted anywhere in the world.
FAQ · Blog · Discussion group · Linking to aprs.fi · AIS sites · Service status · Database statistics · Advertising on aprs.fi · Technical details · API · Change log · Planned changes · Credits and thanks · Terms Of Service · iPhone/iPad APRS